Time;durP1;ratioP1;P1;durP2;ratioP2;P2;SDS_P1;SDS_P2;PMS_P1;PMS_P2;Temp;Humidity;BMP_temperature;BMP_pressure;BME280_temperature;BME280_humidity;BME280_pressure;Samples;Min_cycle;Max_cycle;Signal;HPM_P1;HPM_P2
2022/01/02 00:01:06;;;;;;;;;2.25;2.25;;;;;16.29;45.85;101609.91;146600;641;46019;-80
2022/01/02 00:04:05;;;;;;;;;1.67;1.67;;;;;16.32;46.80;101632.66;146600;611;47008;-78
2022/01/02 00:07:05;;;;;;;;;3.25;3.25;;;;;16.26;46.55;101627.19;146599;591;46913;-79
2022/01/02 00:09:58;;;;;;;;;3.50;3.25;;;;;16.27;47.57;101640.34;146599;622;47008;-74
2022/01/02 00:12:56;;;;;;;;;4.00;4.00;;;;;16.23;47.21;101640.13;146600;577;46017;-74
2022/01/02 00:15:50;;;;;;;;;4.00;4.00;;;;;16.16;46.85;101650.34;146602;576;46008;-70
2022/01/02 00:18:49;;;;;;;;;3.00;3.00;;;;;16.14;46.51;101649.41;146598;564;46913;-72
2022/01/02 00:21:45;;;;;;;;;5.33;3.33;;;;;16.13;47.15;101652.81;146601;615;46025;-77
2022/01/02 00:24:37;;;;;;;;;0.33;0.33;;;;;16.11;47.84;101667.56;146599;584;46016;-81
2022/01/02 00:27:32;;;;;;;;;4.00;3.00;;;;;15.42;47.47;101553.75;146603;664;46021;-79
2022/01/02 00:30:24;;;;;;;;;6.00;6.00;;;;;16.07;47.48;101672.59;146600;566;46010;-77
2022/01/02 00:33:17;;;;;;;;;5.00;5.00;;;;;16.05;47.88;101679.50;146601;643;47008;-77
2022/01/02 00:36:09;;;;;;;;;5.00;3.00;;;;;16.03;48.02;101678.53;146598;577;46010;-75
2022/01/02 00:39:01;;;;;;;;;8.00;5.00;;;;;15.99;48.41;101674.00;146602;608;47008;-80
2022/01/02 00:42:01;;;;;;;;;9.00;8.00;;;;;15.94;48.06;101685.13;146598;591;46010;-86
2022/01/02 00:45:32;;;;;;;;;9.25;7.00;;;;;14.83;48.62;101484.00;146598;618;47008;-90
2022/01/02 00:48:33;;;;;;;;;6.50;6.50;;;;;15.87;48.62;101690.91;146599;580;46016;-86
2022/01/02 00:51:35;;;;;;;;;4.00;4.00;;;;;15.82;48.57;101687.19;146599;614;46020;-73
2022/01/02 00:54:32;;;;;;;;;6.00;4.00;;;;;15.77;48.83;101682.59;146599;563;46012;-73
2022/01/02 00:57:34;;;;;;;;;5.67;5.00;;;;;15.82;49.18;101702.00;146600;597;47008;-76
2022/01/02 01:00:27;;;;;;;;;5.67;5.00;;;;;15.80;48.62;101708.88;146598;624;47010;-79
2022/01/02 01:03:30;;;;;;;;;4.67;4.67;;;;;15.82;49.40;101704.59;146603;573;46020;-82
2022/01/02 01:06:30;;;;;;;;;8.25;6.00;;;;;15.80;49.12;101703.66;146596;597;46914;-82
2022/01/02 01:09:24;;;;;;;;;7.00;6.75;;;;;15.81;49.17;101695.88;146599;612;46020;-73
2022/01/02 01:12:16;;;;;;;;;5.75;5.00;;;;;15.79;48.83;101701.84;146597;596;46022;-75
2022/01/02 01:15:12;;;;;;;;;4.67;4.67;;;;;15.80;48.84;101703.66;146602;579;47008;-76
2022/01/02 01:18:05;;;;;;;;;8.00;6.00;;;;;15.82;49.04;101718.56;146596;606;46913;-79
2022/01/02 01:20:58;;;;;;;;;5.00;5.00;;;;;15.83;48.68;101698.56;146599;579;47008;-77
2022/01/02 01:23:50;;;;;;;;;7.33;6.00;;;;;15.82;49.29;101699.38;146600;666;46016;-78
2022/01/02 01:26:45;;;;;;;;;6.75;5.50;;;;;15.82;49.02;101709.84;146602;590;45021;-78
2022/01/02 01:29:38;;;;;;;;;9.75;7.75;;;;;15.79;49.11;101696.62;146596;645;46016;-76
2022/01/02 01:32:31;;;;;;;;;7.75;7.75;;;;;15.79;49.35;101699.22;146600;571;46020;-76
2022/01/02 01:35:23;;;;;;;;;6.00;6.00;;;;;15.76;49.67;101715.66;146598;696;46016;-76
2022/01/02 01:38:16;;;;;;;;;10.25;6.75;;;;;15.74;49.42;101711.22;146600;603;46020;-75
2022/01/02 01:41:18;;;;;;;;;7.25;6.75;;;;;15.72;49.38;101716.38;146598;601;46017;-80
2022/01/02 01:47:23;;;;;;;;;7.25;5.75;;;;;15.69;49.66;101722.34;146593;566;47010;-83
2022/01/02 01:50:16;;;;;;;;;6.25;6.25;;;;;15.68;50.20;101732.75;146600;581;47008;-79
2022/01/02 01:53:09;;;;;;;;;7.00;6.00;;;;;15.62;50.13;101729.81;146597;632;47010;-76
2022/01/02 01:56:01;;;;;;;;;6.00;6.00;;;;;15.61;50.46;101733.25;146602;574;46020;-82
2022/01/02 01:58:54;;;;;;;;;7.25;7.00;;;;;15.57;50.33;101711.28;146597;588;46016;-82
2022/01/02 02:01:46;;;;;;;;;5.25;4.75;;;;;15.56;49.81;101716.44;146599;658;47008;-85
2022/01/02 02:04:38;;;;;;;;;5.25;5.00;;;;;15.57;49.65;101723.47;146599;569;46016;-77
2022/01/02 02:07:38;;;;;;;;;8.25;8.25;;;;;15.55;50.21;101696.38;146599;653;46008;-76
2022/01/02 02:10:38;;;;;;;;;9.50;6.75;;;;;15.53;50.00;101701.50;146597;680;47010;-75
2022/01/02 02:13:30;;;;;;;;;5.25;5.25;;;;;15.53;49.85;101709.34;146599;567;46020;-73
2022/01/02 02:16:22;;;;;;;;;7.00;5.25;;;;;15.53;49.56;101703.25;146598;605;46010;-74
2022/01/02 02:19:15;;;;;;;;;7.50;5.75;;;;;15.54;49.67;101691.94;146598;565;47008;-80
2022/01/02 02:22:08;;;;;;;;;7.75;6.25;;;;;15.52;49.19;101678.81;146594;672;47913;-84
2022/01/02 02:25:00;;;;;;;;;5.00;4.75;;;;;15.53;49.58;101698.91;146599;590;47008;-71
2022/01/02 02:27:56;;;;;;;;;8.50;7.75;;;;;15.52;49.56;101686.66;146599;660;46016;-77
2022/01/02 02:30:51;;;;;;;;;5.75;5.75;;;;;15.51;49.22;101679.62;146598;669;47020;-75
2022/01/02 02:33:43;;;;;;;;;6.75;5.50;;;;;15.51;48.94;101695.31;146599;698;46016;-75
2022/01/02 02:36:35;;;;;;;;;7.00;7.00;;;;;15.54;48.73;101685.00;146600;655;47008;-75
2022/01/02 02:39:28;;;;;;;;;6.33;5.00;;;;;15.59;48.94;101687.84;146600;598;46016;-73
2022/01/02 02:42:39;;;;;;;;;6.50;6.25;;;;;15.62;48.80;101681.03;146601;569;46020;-72
2022/01/02 02:49:03;;;;;;;;;6.50;5.25;;;;;15.65;48.74;101689.00;146600;567;46021;-82
2022/01/02 02:52:01;;;;;;;;;5.00;5.00;;;;;15.66;48.43;101680.34;146597;621;46913;-80
2022/01/02 02:54:54;;;;;;;;;7.67;6.00;;;;;15.66;48.38;101688.19;146603;673;46020;-81
2022/01/02 02:57:46;;;;;;;;;6.67;6.00;;;;;15.65;48.41;101689.00;146599;572;47012;-83
2022/01/02 03:00:39;;;;;;;;;5.00;4.00;;;;;15.61;47.64;101689.72;146601;604;47008;-82
2022/01/02 03:03:31;;;;;;;;;5.00;5.00;;;;;15.66;48.45;101693.41;146597;694;46016;-81
2022/01/02 03:06:24;;;;;;;;;7.75;5.50;;;;;15.67;48.19;101676.06;146602;616;46020;-83
2022/01/02 03:09:30;;;;;;;;;8.50;7.25;;;;;15.67;47.94;101691.75;146596;630;46016;-78
2022/01/02 03:12:23;;;;;;;;;3.00;3.00;;;;;15.67;47.54;101691.75;146598;625;47010;-78
2022/01/02 03:15:15;;;;;;;;;8.50;5.25;;;;;15.72;47.57;101682.38;146598;636;46026;-80
2022/01/02 03:18:08;;;;;;;;;6.00;6.00;;;;;15.74;47.76;101691.19;146601;582;46009;-76
2022/01/02 03:21:00;;;;;;;;;6.00;6.00;;;;;15.75;47.75;101720.84;146599;593;46016;-80
2022/01/02 03:23:53;;;;;;;;;7.00;5.50;;;;;15.73;47.17;101694.59;146600;565;46026;-83
2022/01/02 03:26:46;;;;;;;;;6.00;5.75;;;;;15.74;47.92;101706.00;146597;597;46016;-85
2022/01/02 03:29:38;;;;;;;;;6.00;5.50;;;;;15.73;47.18;101691.09;146603;685;46020;-84
2022/01/02 03:32:30;;;;;;;;;9.75;7.25;;;;;15.73;47.51;101712.91;146596;664;48010;-80
2022/01/02 03:35:23;;;;;;;;;6.75;5.00;;;;;15.74;47.19;101721.69;146599;655;47008;-72
2022/01/02 03:38:15;;;;;;;;;5.67;5.67;;;;;15.75;47.12;101719.13;146598;578;46016;-72
2022/01/02 03:41:08;;;;;;;;;7.00;6.75;;;;;15.75;47.33;101733.91;146598;578;47008;-73
2022/01/02 03:44:00;;;;;;;;;6.25;5.25;;;;;15.74;47.73;101732.16;146598;650;46016;-72
2022/01/02 03:46:53;;;;;;;;;8.25;5.75;;;;;15.73;47.31;101736.44;146600;630;47008;-71
2022/01/02 03:49:45;;;;;;;;;6.00;6.00;;;;;15.73;47.54;101740.78;146599;587;46016;-73
2022/01/02 03:52:37;;;;;;;;;8.50;7.25;;;;;15.68;47.69;101731.03;146602;583;46008;-73
2022/01/02 03:55:29;;;;;;;;;4.25;4.25;;;;;15.67;47.36;101737.09;146598;599;46913;-73
2022/01/02 03:58:22;;;;;;;;;5.25;5.25;;;;;15.68;47.79;101740.59;146601;587;47008;-75
2022/01/02 04:01:14;;;;;;;;;6.25;5.75;;;;;15.68;47.46;101738.87;146598;628;46913;-74
2022/01/02 04:04:07;;;;;;;;;5.25;5.25;;;;;15.67;47.68;101734.47;146600;645;46020;-76
2022/01/02 04:06:59;;;;;;;;;5.00;5.00;;;;;15.68;47.84;101751.94;146599;660;46016;-76
2022/01/02 04:09:52;;;;;;;;;5.25;5.25;;;;;15.67;47.81;101757.12;146598;639;47008;-75
2022/01/02 04:12:44;;;;;;;;;4.00;3.50;;;;;15.63;48.18;101745.56;146596;578;47010;-76
2022/01/02 04:15:37;;;;;;;;;5.00;5.00;;;;;15.62;47.92;101756.84;146598;677;47008;-78
2022/01/02 04:18:29;;;;;;;;;6.75;6.50;;;;;15.58;48.05;101765.37;146600;565;46016;-75
2022/01/02 04:21:21;;;;;;;;;8.50;6.75;;;;;15.55;48.14;101767.84;146599;582;47008;-76
2022/01/02 04:24:14;;;;;;;;;7.33;5.00;;;;;15.53;47.58;101772.09;146597;579;47010;-75
2022/01/02 04:27:06;;;;;;;;;5.00;4.25;;;;;15.50;48.29;101765.81;146598;573;47010;-75
2022/01/02 04:29:58;;;;;;;;;5.25;5.25;;;;;15.51;48.17;101781.56;146597;564;46913;-81
2022/01/02 04:32:52;;;;;;;;;8.25;6.00;;;;;15.50;48.40;101784.12;146622;617;46008;-80
2022/01/02 04:35:44;;;;;;;;;7.00;7.00;;;;;15.47;48.38;101783.16;146598;682;46010;-84
2022/01/02 04:38:38;;;;;;;;;9.75;7.50;;;;;15.47;48.04;101790.09;146603;637;46021;-82
2022/01/02 04:41:30;;;;;;;;;12.75;9.00;;;;;15.44;48.49;101789.94;146601;617;46913;-84
2022/01/02 04:44:22;;;;;;;;;7.25;6.50;;;;;15.36;48.62;101794.81;146603;578;46020;-84
2022/01/02 04:47:14;;;;;;;;;8.50;7.00;;;;;15.20;48.81;101816.69;146600;574;46017;-83
2022/01/02 04:50:09;;;;;;;;;9.75;8.00;;;;;15.07;49.12;101806.41;146602;565;46008;-78
2022/01/02 04:53:01;;;;;;;;;12.25;11.25;;;;;14.92;49.47;101800.41;146599;597;46017;-78
2022/01/02 04:55:54;;;;;;;;;7.50;6.25;;;;;14.70;50.33;101804.56;146603;630;46008;-78
2022/01/02 04:58:47;;;;;;;;;9.00;8.00;;;;;14.57;50.62;101803.84;146601;590;46010;-80
2022/01/02 05:01:39;;;;;;;;;12.00;10.25;;;;;14.46;51.10;101798.94;146601;636;46021;-81
2022/01/02 05:04:32;;;;;;;;;12.50;10.00;;;;;14.37;51.20;101801.06;146598;576;47010;-76
2022/01/02 05:07:24;;;;;;;;;9.25;9.00;;;;;14.29;51.48;101815.38;146600;592;47008;-77
2022/01/02 05:10:16;;;;;;;;;11.25;10.25;;;;;14.29;51.28;101816.28;146598;660;46016;-75
2022/01/02 05:13:09;;;;;;;;;11.25;10.25;;;;;14.27;51.60;101825.75;146601;677;46020;-78
2022/01/02 05:16:01;;;;;;;;;10.25;10.25;;;;;14.23;51.75;101831.59;146600;671;46017;-79
2022/01/02 05:18:53;;;;;;;;;11.00;11.00;;;;;14.18;51.66;101812.22;146600;581;47008;-78
2022/01/02 05:21:45;;;;;;;;;7.00;6.50;;;;;14.17;52.08;101820.84;146599;702;46016;-78
2022/01/02 05:24:38;;;;;;;;;6.75;6.75;;;;;14.20;51.66;101817.50;146604;565;46008;-79
2022/01/02 05:27:30;;;;;;;;;8.75;8.25;;;;;14.25;51.35;101831.72;146601;637;46016;-80
2022/01/02 05:30:23;;;;;;;;;5.00;5.00;;;;;14.35;50.62;101827.88;146603;569;46020;-79
2022/01/02 05:33:15;;;;;;;;;6.50;4.75;;;;;14.46;50.77;101811.09;146600;635;46016;-79
2022/01/02 05:36:07;;;;;;;;;7.00;5.00;;;;;14.57;50.09;101825.59;146601;703;46008;-79
2022/01/02 05:39:00;;;;;;;;;8.00;6.75;;;;;14.70;50.11;101829.75;146596;603;46033;-79
2022/01/02 05:41:54;;;;;;;;;6.75;4.75;;;;;14.77;49.87;101832.78;146601;581;47008;-76
2022/01/02 05:44:47;;;;;;;;;9.00;7.75;;;;;14.84;49.51;101822.66;146601;697;46016;-78
2022/01/02 05:47:41;;;;;;;;;7.00;7.00;;;;;14.90;49.00;101825.59;146601;597;47008;-75
2022/01/02 05:50:33;;;;;;;;;7.25;7.00;;;;;14.95;49.42;101829.31;146600;682;46010;-74
2022/01/02 05:53:26;;;;;;;;;8.00;7.00;;;;;15.00;49.33;101828.72;146602;570;47008;-74
2022/01/02 05:56:18;;;;;;;;;8.00;7.00;;;;;15.05;49.19;101838.53;146598;604;46016;-77
2022/01/02 05:59:10;;;;;;;;;7.00;7.00;;;;;15.09;49.10;101835.25;146602;601;47011;-78
2022/01/02 06:02:02;;;;;;;;;7.00;7.00;;;;;15.11;49.00;101844.03;146599;742;46914;-83
2022/01/02 06:04:54;;;;;;;;;7.25;6.25;;;;;15.13;49.07;101845.03;146601;626;46008;-80
2022/01/02 06:07:46;;;;;;;;;6.00;6.00;;;;;15.13;48.67;101858.97;146601;700;46017;-80
2022/01/02 06:10:39;;;;;;;;;6.00;6.00;;;;;15.16;48.87;101872.19;146601;601;46026;-77
2022/01/02 06:13:31;;;;;;;;;6.75;5.25;;;;;15.18;48.46;101873.19;146600;735;46017;-83
2022/01/02 06:16:23;;;;;;;;;7.00;6.00;;;;;15.22;48.51;101863.78;146603;675;46021;-81
2022/01/02 06:19:16;;;;;;;;;5.75;5.75;;;;;15.27;48.38;101882.31;146598;565;46030;-80
2022/01/02 06:22:08;;;;;;;;;6.00;6.00;;;;;15.29;48.44;101875.44;146598;626;47008;-80
2022/01/02 06:25:00;;;;;;;;;7.25;7.25;;;;;15.33;48.20;101877.41;146599;573;46016;-82
2022/01/02 06:27:54;;;;;;;;;5.50;5.50;;;;;15.35;48.26;101878.34;146602;634;47008;-86
2022/01/02 06:30:46;;;;;;;;;7.50;6.75;;;;;15.36;48.17;101875.84;146599;628;45913;-78
2022/01/02 06:33:39;;;;;;;;;6.00;6.00;;;;;15.39;48.13;101878.59;146601;603;47008;-78
2022/01/02 06:36:31;;;;;;;;;10.00;6.00;;;;;15.41;48.02;101882.16;146599;596;46010;-78
2022/01/02 06:39:24;;;;;;;;;5.50;4.75;;;;;15.44;47.79;101874.47;146602;571;47008;-79
2022/01/02 06:42:16;;;;;;;;;7.25;6.00;;;;;15.51;47.86;101880.00;146601;578;46016;-79
2022/01/02 06:45:09;;;;;;;;;8.75;7.75;;;;;15.81;47.30;101878.03;146602;656;47008;-80
2022/01/02 06:48:01;;;;;;;;;7.00;6.50;;;;;16.45;46.04;101880.16;146602;688;46016;-83
2022/01/02 06:50:54;;;;;;;;;6.50;6.50;;;;;17.06;45.92;101885.53;146604;614;46008;-86
2022/01/02 06:53:46;;;;;;;;;3.50;3.50;;;;;17.68;43.01;101894.25;146598;651;46016;-84
2022/01/02 06:56:38;;;;;;;;;6.25;5.00;;;;;18.26;44.03;101890.47;146601;577;47008;-80
2022/01/02 06:59:31;;;;;;;;;7.50;4.50;;;;;18.98;41.62;101887.91;146600;689;46913;-82
2022/01/02 07:02:23;;;;;;;;;4.50;4.25;;;;;19.56;41.88;101888.19;146600;606;46020;-83
2022/01/02 07:05:15;;;;;;;;;5.75;5.75;;;;;20.10;40.70;101889.91;146597;609;47013;-83
2022/01/02 07:08:08;;;;;;;;;4.25;4.25;;;;;20.66;40.04;101890.72;146602;620;47008;-85
2022/01/02 07:11:01;;;;;;;;;6.50;6.50;;;;;21.17;39.96;101895.63;146600;596;46016;-82
2022/01/02 07:13:53;;;;;;;;;6.00;6.00;;;;;21.71;36.08;101894.37;146601;677;46021;-82
2022/01/02 07:16:45;;;;;;;;;3.67;3.67;;;;;22.06;38.01;101900.50;146599;595;46016;-83
2022/01/02 07:19:38;;;;;;;;;6.00;5.00;;;;;22.46;35.79;101893.50;146603;639;47008;-82
2022/01/02 07:22:30;;;;;;;;;6.00;5.00;;;;;22.77;36.44;101892.38;146598;675;46010;-79
2022/01/02 07:25:22;;;;;;;;;7.67;5.67;;;;;22.96;35.96;101898.00;146603;617;47008;-82
2022/01/02 07:28:15;;;;;;;;;6.50;5.00;;;;;22.98;36.41;101891.91;146597;589;47012;-81
2022/01/02 07:31:07;;;;;;;;;5.00;4.00;;;;;22.97;34.45;101890.13;146601;674;47008;-79
2022/01/02 07:33:59;;;;;;;;;6.33;5.67;;;;;22.77;35.97;101888.81;146602;586;46016;-78
2022/01/02 07:36:51;;;;;;;;;3.67;3.67;;;;;22.59;35.90;101892.00;146604;596;46008;-74
2022/01/02 07:39:43;;;;;;;;;7.00;4.33;;;;;22.45;35.78;101902.25;146600;577;47010;-74
2022/01/02 07:42:36;;;;;;;;;5.00;4.00;;;;;22.32;35.84;101889.66;146604;645;46020;-76
2022/01/02 07:45:29;;;;;;;;;5.00;5.00;;;;;22.20;35.05;101890.28;146599;606;47010;-75
2022/01/02 07:48:21;;;;;;;;;4.00;4.00;;;;;21.96;34.74;101900.25;146601;564;47008;-76
2022/01/02 07:51:13;;;;;;;;;5.25;4.75;;;;;21.60;35.72;101887.97;146598;614;47010;-75
2022/01/02 07:54:05;;;;;;;;;5.33;4.67;;;;;21.34;37.06;101893.47;146603;569;47020;-75
2022/01/02 07:56:58;;;;;;;;;6.00;6.00;;;;;21.15;38.66;101907.91;146599;599;46026;-75
2022/01/02 07:59:50;;;;;;;;;5.00;5.00;;;;;20.89;36.95;101898.37;146603;604;47008;-78
2022/01/02 08:02:43;;;;;;;;;4.67;3.33;;;;;20.62;37.75;101895.84;146601;569;46016;-84
2022/01/02 08:05:35;;;;;;;;;4.33;3.67;;;;;20.50;37.51;101899.91;146603;576;47009;-80
2022/01/02 08:08:27;;;;;;;;;5.67;5.67;;;;;20.42;38.67;101905.78;146599;570;46012;-78
2022/01/02 08:11:20;;;;;;;;;5.00;5.00;;;;;20.34;38.84;101909.94;146602;610;46008;-76
2022/01/02 08:14:12;;;;;;;;;5.67;4.33;;;;;20.29;38.11;101907.16;146602;565;46016;-71
2022/01/02 08:17:04;;;;;;;;;5.67;5.33;;;;;20.21;38.24;101912.19;146605;621;46008;-79
2022/01/02 08:19:57;;;;;;;;;4.00;4.00;;;;;20.19;38.42;101918.28;146598;631;46013;-77
2022/01/02 08:22:49;;;;;;;;;5.33;4.67;;;;;20.19;39.44;101916.53;146602;590;46020;-78
2022/01/02 08:25:41;;;;;;;;;5.00;4.00;;;;;20.16;38.29;101934.87;146601;566;46016;-76
2022/01/02 08:28:34;;;;;;;;;7.00;6.00;;;;;20.15;38.98;101922.53;146601;572;46020;-88
2022/01/02 08:31:26;;;;;;;;;3.67;3.67;;;;;20.22;39.23;101931.53;146600;583;46913;-83
2022/01/02 08:34:18;;;;;;;;;6.50;5.25;;;;;20.29;37.63;101922.97;146601;598;46008;-82
2022/01/02 08:37:11;;;;;;;;;5.33;5.00;;;;;20.39;38.72;101932.94;146599;641;46016;-78
2022/01/02 08:40:03;;;;;;;;;5.67;4.67;;;;;20.46;38.62;101934.87;146604;585;46008;-72
2022/01/02 08:42:55;;;;;;;;;5.00;5.00;;;;;20.56;39.16;101936.13;146597;581;47011;-70
2022/01/02 08:45:47;;;;;;;;;5.50;5.50;;;;;20.67;38.84;101936.44;146600;636;47008;-71
2022/01/02 08:48:40;;;;;;;;;7.00;7.00;;;;;20.80;38.04;101935.91;146598;617;46016;-72
2022/01/02 08:51:32;;;;;;;;;8.00;6.75;;;;;20.91;35.99;101942.41;146599;597;46021;-71
2022/01/02 08:54:25;;;;;;;;;8.50;7.50;;;;;20.90;37.91;101940.62;146599;685;46016;-71
2022/01/02 08:57:17;;;;;;;;;8.50;8.00;;;;;20.86;39.34;101948.37;146598;570;47008;-72
2022/01/02 09:00:10;;;;;;;;;15.50;12.00;;;;;20.90;39.91;101943.25;146594;639;47016;-70
2022/01/02 09:03:02;;;;;;;;;10.75;9.50;;;;;20.97;37.87;101934.66;146599;581;47008;-70
2022/01/02 09:05:55;;;;;;;;;12.00;8.75;;;;;20.97;38.47;101933.78;146598;577;46017;-70
2022/01/02 09:08:47;;;;;;;;;10.75;8.00;;;;;21.02;39.59;101932.13;146603;569;46008;-69
2022/01/02 09:11:39;;;;;;;;;8.75;8.75;;;;;21.14;39.42;101939.50;146597;565;46030;-72
2022/01/02 09:14:31;;;;;;;;;12.50;10.00;;;;;21.16;38.39;101933.44;146599;602;47008;-66
2022/01/02 09:17:24;;;;;;;;;12.00;12.00;;;;;20.99;38.21;101930.31;146596;685;46029;-68
2022/01/02 09:20:17;;;;;;;;;15.00;12.00;;;;;20.13;40.58;101784.69;146600;595;46021;-69
2022/01/02 09:23:09;;;;;;;;;7.67;7.67;;;;;20.95;40.80;101922.28;146599;599;46016;-70
2022/01/02 09:26:02;;;;;;;;;12.25;11.50;;;;;21.12;38.19;101934.19;146599;588;46025;-69
2022/01/02 09:28:54;;;;;;;;;12.00;10.75;;;;;21.12;38.77;101938.56;146595;675;47010;-68
2022/01/02 09:31:46;;;;;;;;;9.00;8.00;;;;;21.16;38.06;101940.44;146600;676;47008;-69
2022/01/02 09:34:38;;;;;;;;;9.75;9.50;;;;;21.22;38.90;101938.87;146598;581;46017;-69
2022/01/02 09:37:31;;;;;;;;;10.50;10.50;;;;;21.32;39.01;101933.84;146598;720;47008;-70
2022/01/02 09:40:23;;;;;;;;;7.67;6.33;;;;;21.41;37.17;101932.34;146597;571;46913;-69
2022/01/02 09:43:15;;;;;;;;;9.00;8.00;;;;;21.39;36.84;101941.97;146601;613;47008;-69
2022/01/02 09:46:08;;;;;;;;;9.33;8.00;;;;;21.31;38.70;101943.50;146597;591;47010;-70
2022/01/02 09:49:00;;;;;;;;;10.67;9.00;;;;;21.28;39.08;101931.94;146600;579;47008;-70
2022/01/02 09:51:54;;;;;;;;;6.33;6.33;;;;;21.30;39.62;101932.88;146598;599;46029;-69
2022/01/02 09:54:47;;;;;;;;;9.67;9.67;;;;;21.29;38.98;101928.47;146598;678;47008;-68
2022/01/02 09:57:39;;;;;;;;;11.00;9.33;;;;;21.26;38.99;101921.37;146601;579;45913;-75
2022/01/02 10:00:33;;;;;;;;;10.00;9.33;;;;;21.20;39.07;101922.09;146604;631;46020;-71
2022/01/02 10:03:25;;;;;;;;;7.67;7.67;;;;;21.16;39.38;101929.91;146598;573;46017;-70
2022/01/02 10:06:17;;;;;;;;;11.00;9.33;;;;;21.03;39.27;101925.13;146602;570;47008;-70
2022/01/02 10:09:49;;;;;;;;;8.00;7.00;;;;;20.94;40.25;101931.06;146598;598;47013;-69
2022/01/02 10:12:41;;;;;;;;;6.00;6.00;;;;;20.81;37.05;101924.53;146603;645;46020;-69
2022/01/02 10:15:35;;;;;;;;;10.00;8.67;;;;;20.73;39.16;101928.69;146599;624;46016;-68
2022/01/02 10:18:29;;;;;;;;;10.50;9.25;;;;;20.69;39.76;101924.19;146602;570;46021;-69
2022/01/02 10:21:38;;;;;;;;;9.00;9.00;;;;;20.83;40.81;101907.00;146600;618;46016;-69
2022/01/02 10:24:46;;;;;;;;;11.33;8.67;;;;;21.14;40.76;101915.75;146600;577;46008;-69
2022/01/02 10:27:38;;;;;;;;;11.50;9.25;;;;;21.46;39.24;101914.00;146600;639;46017;-68
2022/01/02 10:30:31;;;;;;;;;9.00;8.33;;;;;21.75;39.20;101908.56;146602;632;47008;-69
2022/01/02 10:33:23;;;;;;;;;8.33;7.00;;;;;22.04;39.14;101907.50;146599;687;46017;-69
2022/01/02 10:36:15;;;;;;;;;10.67;10.67;;;;;22.27;36.54;101904.50;146601;575;46020;-72
2022/01/02 10:39:36;;;;;;;;;8.67;7.67;;;;;21.37;35.86;101737.91;146601;607;46016;-69
2022/01/02 10:42:28;;;;;;;;;6.33;6.33;;;;;22.06;35.49;101892.59;146606;587;46008;-73
2022/01/02 10:45:43;;;;;;;;;8.00;6.67;;;;;20.23;38.54;101598.84;146600;647;46016;-69
2022/01/02 10:48:38;;;;;;;;;12.33;9.67;;;;;21.92;36.98;101891.37;146603;579;47010;-73
2022/01/02 10:51:31;;;;;;;;;10.00;9.50;;;;;22.01;36.68;101899.50;146600;563;46016;-72
2022/01/02 10:54:35;;;;;;;;;9.25;9.25;;;;;22.11;37.17;101882.09;146599;679;46009;-70
2022/01/02 10:57:27;;;;;;;;;12.00;11.25;;;;;22.28;37.32;101886.06;146598;617;46913;-71
2022/01/02 11:00:21;;;;;;;;;7.33;6.33;;;;;22.33;36.33;101880.84;146603;573;47008;-72
2022/01/02 11:03:16;;;;;;;;;6.33;6.33;;;;;22.25;36.02;101879.81;146602;590;46017;-69
2022/01/02 11:10:27;;;;;;;;;9.67;7.67;;;;;22.28;36.94;101882.53;146623;493;46016;-70
2022/01/02 11:13:22;;;;;;;;;12.00;11.00;;;;;22.18;37.73;101880.53;146605;709;46010;-69
2022/01/02 11:16:14;;;;;;;;;7.67;6.67;;;;;22.16;37.41;101879.59;146600;569;47010;-71
2022/01/02 11:19:08;;;;;;;;;9.00;8.33;;;;;22.11;35.52;101885.62;146601;641;47008;-72
2022/01/02 11:22:02;;;;;;;;;8.00;8.00;;;;;22.10;36.20;101883.88;146599;577;46016;-71
2022/01/02 11:25:05;;;;;;;;;10.67;10.00;;;;;22.07;38.08;101888.19;146599;661;47010;-71
2022/01/02 11:28:09;;;;;;;;;8.00;7.33;;;;;22.14;38.04;101883.06;146599;565;46016;-72
2022/01/02 11:31:01;;;;;;;;;14.00;11.33;;;;;22.26;36.54;101884.25;146599;567;46020;-72
2022/01/02 11:33:53;;;;;;;;;14.33;12.33;;;;;22.27;36.73;101888.66;146599;579;46016;-72
2022/01/02 11:36:45;;;;;;;;;8.67;8.67;;;;;22.02;36.15;101884.53;146602;614;47008;-71
2022/01/02 11:39:56;;;;;;;;;11.75;9.75;;;;;21.68;39.03;101886.38;146595;650;47010;-72
2022/01/02 11:42:49;;;;;;;;;11.67;11.33;;;;;21.50;38.29;101876.28;146604;573;46020;-71
2022/01/02 11:45:45;;;;;;;;;9.33;9.00;;;;;21.31;36.67;101884.53;146599;637;46017;-71
2022/01/02 11:48:37;;;;;;;;;11.00;10.00;;;;;21.15;36.41;101876.25;146605;608;46008;-70
2022/01/02 11:52:09;;;;;;;;;10.00;9.33;;;;;21.13;39.24;101874.44;146598;609;47010;-72
2022/01/02 11:55:01;;;;;;;;;10.00;7.67;;;;;21.21;37.17;101884.34;146604;616;46021;-73
2022/01/02 11:57:53;;;;;;;;;8.00;8.00;;;;;21.25;37.45;101874.75;146599;581;46010;-72
2022/01/02 12:00:50;;;;;;;;;8.33;7.00;;;;;21.34;36.45;101875.00;146605;595;46008;-71
2022/01/02 12:04:00;;;;;;;;;9.00;9.00;;;;;21.43;38.02;101859.41;146603;608;47012;-72
2022/01/02 12:06:53;;;;;;;;;7.00;5.67;;;;;21.44;35.46;101862.94;146604;571;46020;-71
2022/01/02 12:09:45;;;;;;;;;9.00;8.00;;;;;21.57;37.61;101866.78;146606;582;46917;-72
2022/01/02 12:13:00;;;;;;;;;9.67;9.67;;;;;21.82;37.38;101862.97;146602;569;46026;-71
2022/01/02 12:16:12;;;;;;;;;12.00;10.50;;;;;21.20;39.36;101686.47;146600;606;46013;-72
2022/01/02 12:19:04;;;;;;;;;10.33;9.00;;;;;22.38;36.27;101850.16;146607;677;46008;-72
2022/01/02 12:22:20;;;;;;;;;12.67;9.67;;;;;22.54;36.43;101846.94;146607;605;45917;-72
2022/01/02 12:25:23;;;;;;;;;14.75;12.25;;;;;22.67;37.12;101836.63;146603;582;46020;-72
2022/01/02 12:28:15;;;;;;;;;7.00;7.00;;;;;22.12;36.73;101717.50;146603;563;46016;-72
2022/01/02 12:31:09;;;;;;;;;25.50;21.00;;;;;23.22;36.19;101840.31;146606;594;46008;-72
2022/01/02 12:34:24;;;;;;;;;8.00;7.00;;;;;23.55;34.66;101834.69;146601;700;46017;-71
2022/01/02 12:37:17;;;;;;;;;6.00;6.00;;;;;23.34;35.02;101826.41;146607;577;46020;-72
2022/01/02 12:40:17;;;;;;;;;8.25;8.25;;;;;23.14;37.39;101828.69;146601;680;47012;-73
2022/01/02 12:43:09;;;;;;;;;9.00;8.00;;;;;23.12;36.15;101830.44;146602;613;46020;-72
2022/01/02 12:46:02;;;;;;;;;9.25;9.00;;;;;23.11;36.29;101832.16;146602;672;46016;-72
2022/01/02 12:48:59;;;;;;;;;7.67;7.67;;;;;23.08;35.73;101833.87;146605;569;45048;-72
2022/01/02 12:51:56;;;;;;;;;8.67;6.67;;;;;23.02;35.69;101826.72;146604;575;46016;-72
2022/01/02 12:54:51;;;;;;;;;6.67;6.00;;;;;22.66;32.93;101829.56;146604;578;46021;-73
2022/01/02 12:57:44;;;;;;;;;4.67;4.67;;;;;22.33;34.19;101828.00;146601;582;47917;-71
2022/01/02 13:00:36;;;;;;;;;6.00;6.00;;;;;22.06;35.27;101831.84;146606;651;46011;-70
2022/01/02 13:03:29;;;;;;;;;6.33;6.00;;;;;21.81;34.91;101834.78;146602;597;46918;-72
2022/01/02 13:06:25;;;;;;;;;5.00;4.00;;;;;21.61;36.60;101837.84;146606;595;46020;-71
2022/01/02 13:09:40;;;;;;;;;7.00;6.00;;;;;21.47;35.41;101836.63;146605;567;46010;-72
2022/01/02 13:12:35;;;;;;;;;7.33;5.33;;;;;21.48;36.59;101834.88;146608;569;46008;-72
2022/01/02 13:15:28;;;;;;;;;9.00;8.00;;;;;21.59;38.03;101839.56;146604;651;46016;-71
2022/01/02 13:18:20;;;;;;;;;10.00;9.00;;;;;21.55;36.86;101832.41;146608;638;46021;-72
2022/01/02 13:21:18;;;;;;;;;10.00;7.67;;;;;21.15;38.11;101836.69;146605;630;46010;-72
2022/01/02 13:24:31;;;;;;;;;9.00;6.50;;;;;21.09;39.16;101841.81;146604;708;47010;-71
2022/01/02 13:27:24;;;;;;;;;10.00;8.33;;;;;21.19;39.21;101842.94;146605;592;46016;-73
2022/01/02 13:30:22;;;;;;;;;6.00;6.00;;;;;21.24;37.89;101833.37;146606;618;45020;-71
2022/01/02 13:33:31;;;;;;;;;8.00;6.67;;;;;21.19;39.13;101835.91;146600;581;46016;-72
2022/01/02 13:36:26;;;;;;;;;6.67;6.00;;;;;21.18;37.91;101838.50;146602;572;46919;-71
2022/01/02 13:39:17;;;;;;;;;7.67;6.67;;;;;21.25;38.76;101842.22;146606;656;46917;-71
2022/01/02 13:42:10;;;;;;;;;6.33;6.33;;;;;21.31;38.16;101839.69;146609;603;46020;-73